createdAt,value
2022-10-11T00:01:21.171Z,11.63
2022-10-11T00:03:47.798Z,11.77
2022-10-11T00:06:14.409Z,9.00
2022-10-11T00:08:41.004Z,11.43
2022-10-11T00:11:08.600Z,10.17
2022-10-11T00:13:36.102Z,14.63
2022-10-11T00:16:08.499Z,8.00
2022-10-11T00:18:35.396Z,9.87
2022-10-11T00:21:06.842Z,6.73
2022-10-11T00:23:33.633Z,6.97
2022-10-11T00:26:02.675Z,9.40
2022-10-11T00:28:37.628Z,7.63
2022-10-11T00:31:11.133Z,11.10
2022-10-11T00:33:37.765Z,8.77
2022-10-11T00:36:05.087Z,13.60
2022-10-11T00:38:32.216Z,7.87
2022-10-11T00:40:59.854Z,13.03
2022-10-11T00:43:29.057Z,9.43
2022-10-11T00:45:55.604Z,10.30
2022-10-11T00:48:29.846Z,11.23
2022-10-11T00:50:58.390Z,8.33
2022-10-11T00:53:25.742Z,12.37
2022-10-11T00:55:57.919Z,10.10
2022-10-11T00:58:24.972Z,11.03
2022-10-11T01:00:51.979Z,9.27
2022-10-11T01:03:20.491Z,8.93
2022-10-11T01:05:47.463Z,8.13
2022-10-11T01:08:14.048Z,8.83
2022-10-11T01:10:40.822Z,8.47
2022-10-11T01:13:20.998Z,9.70
2022-10-11T01:15:57.063Z,8.23
2022-10-11T01:18:52.065Z,6.23
2022-10-11T01:21:31.277Z,6.80
2022-10-11T01:24:08.900Z,8.47
2022-10-11T01:26:53.843Z,7.10
2022-10-11T01:30:17.281Z,6.87
2022-10-11T01:33:28.855Z,8.40
2022-10-11T01:35:58.319Z,6.90
2022-10-11T01:38:33.389Z,7.87
2022-10-11T01:41:04.807Z,6.40
2022-10-11T01:43:31.927Z,6.87
2022-10-11T01:46:00.268Z,6.27
2022-10-11T01:48:26.852Z,9.63
2022-10-11T01:50:56.098Z,8.60
2022-10-11T01:53:31.527Z,7.03
2022-10-11T01:56:09.434Z,9.30
2022-10-11T01:58:45.027Z,7.03
2022-10-11T02:01:24.431Z,5.87
2022-10-11T02:04:11.210Z,6.70
2022-10-11T02:07:01.648Z,7.17
2022-10-11T02:09:35.456Z,5.77
2022-10-11T02:12:05.950Z,7.77
2022-10-11T02:14:35.909Z,8.17
2022-10-11T02:17:07.745Z,8.47
2022-10-11T02:19:41.756Z,8.47
2022-10-11T02:22:19.683Z,6.83
2022-10-11T02:24:49.447Z,5.73
2022-10-11T02:27:18.029Z,6.43
2022-10-11T02:29:45.589Z,13.77
2022-10-11T02:32:13.412Z,8.07
2022-10-11T02:34:51.333Z,8.80
2022-10-11T02:37:41.399Z,8.00
2022-10-11T02:40:21.347Z,6.87
2022-10-11T02:43:01.412Z,7.13
2022-10-11T02:45:31.597Z,7.27
2022-10-11T02:47:58.544Z,8.47
2022-10-11T02:50:25.169Z,6.97
2022-10-11T02:52:51.772Z,5.10
2022-10-11T02:55:18.512Z,7.00
2022-10-11T02:57:45.148Z,6.03
2022-10-11T03:00:12.378Z,6.83
2022-10-11T03:02:44.981Z,6.83
2022-10-11T03:05:11.613Z,7.47
2022-10-11T03:07:38.375Z,8.10
2022-10-11T03:10:06.168Z,5.20
2022-10-11T03:12:32.806Z,6.23
2022-10-11T03:14:59.428Z,6.80
2022-10-11T03:17:42.043Z,6.83
2022-10-11T03:20:09.036Z,4.13
2022-10-11T03:22:35.695Z,9.27
2022-10-11T03:25:04.428Z,8.50
2022-10-11T03:27:32.744Z,5.43
2022-10-11T03:29:59.570Z,7.57
2022-10-11T03:32:26.202Z,4.80
2022-10-11T03:34:52.945Z,6.90
2022-10-11T03:37:19.565Z,6.03
2022-10-11T03:39:46.211Z,8.83
2022-10-11T03:42:13.563Z,5.43
2022-10-11T03:44:41.764Z,5.27
2022-10-11T03:47:08.831Z,6.10
2022-10-11T03:49:38.843Z,5.73
2022-10-11T03:52:09.422Z,7.77
2022-10-11T03:54:36.051Z,7.07
2022-10-11T03:57:02.669Z,6.60
2022-10-11T03:59:29.325Z,6.00
2022-10-11T04:01:56.067Z,4.33
2022-10-11T04:04:22.721Z,7.30
2022-10-11T04:06:49.670Z,6.00
2022-10-11T04:09:16.290Z,6.07
2022-10-11T04:11:42.926Z,5.07
2022-10-11T04:14:09.549Z,4.27
2022-10-11T04:16:38.744Z,4.30
2022-10-11T04:19:05.485Z,5.77
2022-10-11T04:21:32.258Z,4.13
2022-10-11T04:23:58.881Z,3.83
2022-10-11T04:26:25.495Z,5.47
2022-10-11T04:28:55.205Z,3.57
2022-10-11T04:31:21.969Z,3.93
2022-10-11T04:33:54.710Z,6.43
2022-10-11T04:36:21.298Z,4.63
2022-10-11T04:38:47.930Z,3.70
2022-10-11T04:41:14.911Z,4.50
2022-10-11T04:43:41.908Z,4.33
2022-10-11T04:46:09.921Z,4.43
2022-10-11T04:48:37.159Z,4.37
2022-10-11T04:51:03.877Z,4.93
2022-10-11T04:53:30.601Z,4.53
2022-10-11T04:55:58.603Z,3.77
2022-10-11T04:58:25.320Z,8.40
2022-10-11T05:00:51.986Z,4.07
2022-10-11T05:03:18.631Z,4.03
2022-10-11T05:05:45.273Z,5.17
2022-10-11T05:08:12.324Z,4.10
2022-10-11T05:10:38.967Z,4.23
2022-10-11T05:13:05.718Z,4.00
2022-10-11T05:15:32.669Z,4.40
2022-10-11T05:17:59.381Z,5.70
2022-10-11T05:20:26.252Z,5.20
2022-10-11T05:22:52.864Z,4.80
2022-10-11T05:25:19.447Z,5.33
2022-10-11T05:27:46.057Z,5.70
2022-10-11T05:30:12.832Z,4.83
2022-10-11T05:32:39.474Z,6.37
2022-10-11T05:35:07.095Z,7.43
2022-10-11T05:37:33.732Z,5.80
2022-10-11T05:40:00.329Z,5.80
2022-10-11T05:42:26.922Z,7.70
2022-10-11T05:44:53.561Z,9.07
2022-10-11T05:47:20.184Z,8.80
2022-10-11T05:49:46.819Z,7.83
2022-10-11T05:52:13.781Z,9.30
2022-10-11T05:54:40.528Z,9.83
2022-10-11T05:57:07.152Z,13.83
2022-10-11T05:59:35.386Z,8.00
2022-10-11T06:02:02.103Z,9.97
2022-10-11T06:04:28.823Z,12.17
2022-10-11T06:06:55.510Z,8.67
2022-10-11T06:09:22.179Z,8.83
2022-10-11T06:11:48.883Z,8.20
2022-10-11T06:14:15.552Z,7.40
2022-10-11T06:16:42.194Z,5.77
2022-10-11T06:19:09.002Z,6.10
2022-10-11T06:21:35.763Z,8.30
2022-10-11T06:24:02.775Z,9.10
2022-10-11T06:26:29.789Z,8.87
2022-10-11T06:28:56.919Z,6.43
2022-10-11T06:31:23.678Z,6.57
2022-10-11T06:33:50.417Z,6.83
2022-10-11T06:36:17.564Z,7.70
2022-10-11T06:38:45.349Z,5.40
2022-10-11T06:41:22.118Z,7.10
2022-10-11T06:43:51.667Z,6.20
2022-10-11T06:46:20.157Z,8.10
2022-10-11T06:48:47.820Z,10.17
2022-10-11T06:51:16.179Z,8.23
2022-10-11T06:53:43.263Z,9.53
2022-10-11T06:56:12.092Z,7.23
2022-10-11T06:58:39.817Z,10.50
2022-10-11T07:01:09.128Z,10.57
2022-10-11T07:03:36.112Z,13.17
2022-10-11T07:06:08.020Z,10.83
2022-10-11T07:08:35.380Z,13.53
2022-10-11T07:11:22.516Z,12.13
2022-10-11T07:13:51.284Z,11.23
2022-10-11T07:16:18.470Z,13.83
2022-10-11T07:18:45.473Z,10.90
2022-10-11T07:21:14.960Z,14.63
2022-10-11T07:23:42.617Z,13.03
2022-10-11T07:26:10.334Z,14.57
2022-10-11T07:28:37.985Z,15.20
2022-10-11T07:31:13.795Z,16.47
2022-10-11T07:33:40.682Z,12.67
2022-10-11T07:36:08.145Z,12.53
2022-10-11T07:38:35.758Z,16.13
2022-10-11T07:41:06.216Z,14.03
2022-10-11T07:43:33.218Z,11.70
2022-10-11T07:46:05.125Z,10.47
2022-10-11T07:48:35.656Z,12.50
2022-10-11T07:51:11.140Z,14.50
2022-10-11T07:53:42.891Z,18.30
2022-10-11T07:56:12.574Z,12.63
2022-10-11T07:58:40.504Z,14.97
2022-10-11T08:01:07.732Z,14.63
2022-10-11T08:03:34.702Z,13.10
2022-10-11T08:06:07.469Z,14.90
2022-10-11T08:08:34.469Z,12.13
2022-10-11T08:11:01.208Z,16.13
2022-10-11T08:13:28.010Z,14.43
2022-10-11T08:15:54.879Z,11.80
2022-10-11T08:18:21.769Z,13.87
2022-10-11T08:20:48.849Z,11.67
2022-10-11T08:23:16.938Z,13.80
2022-10-11T08:25:46.246Z,15.03
2022-10-11T08:28:17.048Z,13.10
2022-10-11T08:30:51.038Z,11.57
2022-10-11T08:33:18.650Z,17.73
2022-10-11T08:35:45.521Z,13.67
2022-10-11T08:38:12.561Z,14.70
2022-10-11T08:40:55.397Z,16.27
2022-10-11T08:43:43.862Z,13.30
2022-10-11T08:46:11.081Z,12.33
2022-10-11T08:48:48.852Z,14.23
2022-10-11T08:51:39.372Z,16.37
2022-10-11T08:54:21.029Z,13.87
2022-10-11T08:56:47.736Z,13.27
2022-10-11T08:59:29.690Z,12.40
2022-10-11T09:02:13.459Z,14.37
2022-10-11T09:04:40.143Z,15.83
2022-10-11T09:07:39.609Z,9.77
2022-10-11T09:10:09.626Z,12.20
2022-10-11T09:13:01.130Z,16.80
2022-10-11T09:15:56.916Z,16.80
2022-10-11T09:18:26.656Z,19.83
2022-10-11T09:20:53.274Z,16.70
2022-10-11T09:24:08.153Z,20.37
2022-10-11T09:26:51.863Z,16.20
2022-10-11T09:29:25.121Z,13.10
2022-10-11T09:31:54.328Z,12.00
2022-10-11T09:34:23.963Z,16.77
2022-10-11T09:36:58.189Z,17.93
2022-10-11T09:39:29.412Z,18.80
2022-10-11T09:42:01.551Z,14.57
2022-10-11T09:44:39.583Z,18.93
2022-10-11T09:47:07.051Z,31.17
2022-10-11T09:49:41.357Z,28.97
2022-10-11T09:52:15.509Z,22.80
2022-10-11T09:54:48.236Z,16.10
2022-10-11T09:57:36.556Z,20.83
2022-10-11T10:00:12.306Z,18.10
2022-10-11T10:02:47.215Z,15.43
2022-10-11T10:05:25.724Z,13.70
2022-10-11T10:08:20.440Z,14.07
2022-10-11T10:10:59.410Z,14.20
2022-10-11T10:13:46.204Z,12.83
2022-10-11T10:16:27.754Z,16.13
2022-10-11T10:19:16.330Z,13.17
2022-10-11T10:21:49.162Z,14.17
2022-10-11T10:24:33.976Z,20.03
2022-10-11T10:27:08.587Z,15.57
2022-10-11T10:29:36.084Z,12.30
2022-10-11T10:32:14.975Z,13.70
2022-10-11T10:34:55.852Z,13.37
2022-10-11T10:37:25.374Z,14.00
2022-10-11T10:39:59.344Z,15.70
2022-10-11T10:42:25.993Z,15.60
2022-10-11T10:45:00.120Z,12.67
2022-10-11T10:47:51.627Z,16.53
2022-10-11T10:50:39.948Z,17.60
2022-10-11T10:53:20.398Z,22.97
2022-10-11T10:56:02.436Z,14.80
2022-10-11T10:59:11.038Z,15.60
2022-10-11T11:01:50.185Z,17.80
2022-10-11T11:04:32.441Z,17.83
2022-10-11T11:07:03.386Z,21.73
2022-10-11T11:09:37.957Z,19.83
2022-10-11T11:12:14.413Z,21.53
2022-10-11T11:14:59.417Z,17.53
2022-10-11T11:17:42.625Z,18.83
2022-10-11T11:20:21.647Z,21.53
2022-10-11T11:23:01.101Z,17.47
2022-10-11T11:25:44.538Z,21.80
2022-10-11T11:28:39.027Z,20.63
2022-10-11T11:31:40.941Z,20.63
2022-10-11T11:34:22.397Z,18.50
2022-10-11T11:36:56.607Z,20.73
2022-10-11T11:39:28.738Z,18.17
2022-10-11T11:42:05.013Z,17.40
2022-10-11T11:44:34.363Z,14.67
2022-10-11T11:47:04.390Z,14.20
2022-10-11T11:49:37.201Z,14.30
2022-10-11T11:52:08.497Z,11.10
2022-10-11T11:54:50.270Z,14.13
2022-10-11T11:57:48.872Z,16.47
2022-10-11T12:00:24.182Z,14.77
2022-10-11T12:02:54.927Z,15.07
2022-10-11T12:05:25.894Z,14.23
2022-10-11T12:10:49.931Z,14.10
2022-10-11T12:14:13.837Z,20.93
2022-10-11T12:23:00.615Z,12.00
2022-10-11T12:25:27.211Z,9.53
2022-10-11T12:27:56.534Z,10.40
2022-10-11T12:30:47.046Z,9.33
2022-10-11T12:33:16.568Z,9.53
2022-10-11T12:35:57.460Z,11.67
2022-10-11T12:38:31.355Z,8.97
2022-10-11T12:41:02.286Z,6.70
2022-10-11T12:43:36.355Z,6.90
2022-10-11T12:46:47.379Z,8.20
2022-10-11T12:49:36.418Z,8.50
2022-10-11T12:52:05.137Z,9.33
2022-10-11T12:54:37.646Z,7.53
2022-10-11T13:07:23.500Z,6.43
2022-10-11T13:10:11.409Z,7.53
2022-10-11T13:12:42.069Z,6.00
2022-10-11T13:15:14.907Z,4.43
2022-10-11T13:17:41.984Z,5.30
2022-10-11T13:20:18.147Z,6.07
2022-10-11T13:22:51.604Z,4.60
2022-10-11T13:25:37.329Z,6.10
2022-10-11T13:28:04.145Z,5.63
2022-10-11T13:30:34.422Z,7.70
2022-10-11T13:33:01.814Z,6.00
2022-10-11T13:35:32.399Z,4.03
2022-10-11T13:37:59.590Z,5.53
2022-10-11T13:40:27.212Z,7.50
2022-10-11T13:42:56.772Z,6.43
2022-10-11T13:45:25.740Z,3.93
2022-10-11T13:47:53.756Z,4.00
2022-10-11T13:50:30.610Z,3.83
2022-10-11T13:53:09.845Z,3.77
2022-10-11T13:55:42.600Z,3.60
2022-10-11T13:58:19.303Z,5.63
2022-10-11T14:00:57.168Z,4.57
2022-10-11T14:03:27.002Z,6.33
2022-10-11T14:06:04.636Z,3.43
2022-10-11T14:08:38.306Z,6.67
2022-10-11T14:11:06.896Z,5.30
2022-10-11T14:13:44.156Z,5.83
2022-10-11T14:16:29.596Z,6.20
2022-10-11T14:18:59.117Z,7.23
2022-10-11T14:21:47.276Z,5.00
2022-10-11T14:24:16.095Z,6.07
2022-10-11T14:26:44.211Z,5.07
2022-10-11T14:29:26.557Z,5.50
2022-10-11T14:31:59.035Z,4.10
2022-10-11T14:34:26.029Z,5.67
2022-10-11T14:36:53.719Z,5.00
2022-10-11T14:39:25.654Z,4.90
2022-10-11T14:41:52.887Z,2.73
2022-10-11T14:44:21.074Z,3.87
2022-10-11T14:46:49.317Z,5.53
2022-10-11T14:49:20.407Z,6.50
2022-10-11T14:51:48.936Z,3.97
2022-10-11T14:54:18.091Z,5.00
2022-10-11T14:56:45.733Z,5.13
2022-10-11T14:59:15.378Z,4.47
2022-10-11T15:01:42.317Z,5.30
2022-10-11T15:04:09.236Z,3.97
2022-10-11T15:06:38.366Z,7.60
2022-10-11T15:09:06.326Z,3.93
2022-10-11T15:11:43.536Z,3.40
2022-10-11T15:14:10.199Z,6.07
2022-10-11T15:16:36.978Z,6.43
2022-10-11T15:19:24.904Z,2.07
2022-10-11T15:21:51.878Z,5.17
2022-10-11T15:24:21.612Z,4.33
2022-10-11T15:26:49.008Z,2.33
2022-10-11T15:29:17.959Z,4.10
2022-10-11T15:31:49.932Z,4.13
2022-10-11T15:34:17.088Z,3.00
2022-10-11T15:36:44.309Z,4.77
2022-10-11T15:39:24.693Z,4.60
2022-10-11T15:41:57.766Z,2.87
2022-10-11T15:44:24.695Z,4.70
2022-10-11T15:47:01.703Z,4.77
2022-10-11T15:49:28.863Z,3.80
2022-10-11T15:51:55.516Z,6.73
2022-10-11T15:54:22.253Z,3.70
2022-10-11T15:56:48.876Z,4.13
2022-10-11T15:59:15.518Z,6.63
2022-10-11T16:01:42.312Z,5.60
2022-10-11T16:04:09.733Z,5.73
2022-10-11T16:06:38.742Z,5.43
2022-10-11T16:09:05.448Z,8.23
2022-10-11T16:11:32.042Z,5.63
2022-10-11T16:13:58.667Z,6.67
2022-10-11T16:16:25.268Z,5.17
2022-10-11T16:18:51.859Z,5.53
2022-10-11T16:21:20.479Z,6.97
2022-10-11T16:23:47.029Z,5.03
2022-10-11T16:26:14.036Z,5.40
2022-10-11T16:28:47.681Z,5.73
2022-10-11T16:31:21.044Z,6.37
2022-10-11T16:33:48.122Z,6.37
2022-10-11T16:36:32.082Z,7.37
2022-10-11T16:38:59.374Z,5.50
2022-10-11T16:41:25.988Z,4.83
2022-10-11T16:43:54.576Z,5.20
2022-10-11T16:46:22.165Z,7.07
2022-10-11T16:48:49.042Z,8.87
2022-10-11T16:51:15.682Z,6.93
2022-10-11T16:53:42.377Z,6.43
2022-10-11T16:56:10.088Z,6.07
2022-10-11T16:58:36.951Z,7.20
2022-10-11T17:01:08.813Z,9.67
2022-10-11T17:03:35.602Z,8.07
2022-10-11T17:06:02.617Z,6.60
2022-10-11T17:08:29.529Z,9.97
2022-10-11T17:10:57.759Z,5.97
2022-10-11T17:13:24.817Z,7.67
2022-10-11T17:15:51.575Z,5.80
2022-10-11T17:18:23.283Z,9.60
2022-10-11T17:20:50.035Z,7.53
2022-10-11T17:23:16.637Z,9.00
2022-10-11T17:25:45.106Z,6.43
2022-10-11T17:28:17.769Z,9.40
2022-10-11T17:30:53.428Z,7.50
2022-10-11T17:33:20.023Z,6.07
2022-10-11T17:35:46.702Z,9.00
2022-10-11T17:38:13.268Z,7.40
2022-10-11T17:40:39.931Z,7.60
2022-10-11T17:43:06.539Z,7.43
2022-10-11T17:45:33.153Z,7.50
2022-10-11T17:48:00.700Z,7.57
2022-10-11T17:50:27.358Z,8.27
2022-10-11T17:52:53.988Z,6.07
2022-10-11T17:55:20.686Z,10.20
2022-10-11T17:57:47.359Z,9.47
2022-10-11T18:00:14.602Z,9.63
2022-10-11T18:02:41.728Z,9.43
2022-10-11T18:05:08.791Z,11.73
2022-10-11T18:07:35.403Z,7.33
2022-10-11T18:10:02.049Z,9.00
2022-10-11T18:12:28.840Z,9.70
2022-10-11T18:14:55.424Z,8.07
2022-10-11T18:17:22.038Z,9.57
2022-10-11T18:19:48.690Z,10.47
2022-10-11T18:22:15.417Z,10.57
2022-10-11T18:24:41.976Z,11.03
2022-10-11T18:27:08.644Z,13.67
2022-10-11T18:29:35.261Z,11.97
2022-10-11T18:32:01.832Z,7.20
2022-10-11T18:34:28.418Z,7.80
2022-10-11T18:36:55.382Z,10.87
2022-10-11T18:39:22.196Z,10.13
2022-10-11T18:41:48.828Z,10.07
2022-10-11T18:44:15.877Z,14.50
2022-10-11T18:46:42.940Z,8.93
2022-10-11T18:49:09.928Z,8.00
2022-10-11T18:51:38.592Z,8.47
2022-10-11T18:54:06.180Z,9.17
2022-10-11T18:56:34.683Z,7.70
2022-10-11T18:59:01.399Z,10.87
2022-10-11T19:01:30.752Z,10.77
2022-10-11T19:03:59.243Z,7.17
2022-10-11T19:06:34.804Z,8.37
2022-10-11T19:09:06.476Z,10.80
2022-10-11T19:11:33.459Z,10.93
2022-10-11T19:14:01.390Z,10.33
2022-10-11T19:16:29.880Z,12.13
2022-10-11T19:18:57.445Z,12.23
2022-10-11T19:21:24.402Z,12.03
2022-10-11T19:23:51.298Z,9.97
2022-10-11T19:26:20.703Z,13.00
2022-10-11T19:28:48.212Z,10.00
2022-10-11T19:31:17.115Z,11.47
2022-10-11T19:33:45.385Z,12.10
2022-10-11T19:36:14.136Z,10.33
2022-10-11T19:38:44.338Z,12.17
2022-10-11T19:41:11.677Z,8.03
2022-10-11T19:43:38.359Z,14.37
2022-10-11T19:46:07.673Z,9.57
2022-10-11T19:48:38.168Z,9.87
2022-10-11T19:51:10.312Z,12.20
2022-10-11T19:53:37.003Z,8.07
2022-10-11T19:56:05.981Z,8.67
2022-10-11T19:58:32.932Z,12.03
2022-10-11T20:01:05.233Z,12.20
2022-10-11T20:03:32.064Z,9.60
2022-10-11T20:06:00.501Z,10.37
2022-10-11T20:08:28.585Z,12.00
2022-10-11T20:10:55.413Z,8.37
2022-10-11T20:13:22.140Z,8.73
2022-10-11T20:15:49.155Z,8.33
2022-10-11T20:18:15.839Z,7.67
2022-10-11T20:20:55.682Z,10.60
2022-10-11T20:23:27.353Z,8.73
2022-10-11T20:26:15.110Z,9.17
2022-10-11T20:28:43.007Z,9.70
2022-10-11T20:31:33.438Z,11.50
2022-10-11T20:34:02.452Z,8.60
2022-10-11T20:36:32.455Z,11.13
2022-10-11T20:38:59.975Z,10.67
2022-10-11T20:41:29.274Z,9.27
2022-10-11T20:43:57.800Z,9.73
2022-10-11T20:46:28.163Z,7.37
2022-10-11T20:49:01.378Z,9.40
2022-10-11T20:51:29.600Z,14.97
2022-10-11T20:53:56.601Z,9.40
2022-10-11T20:56:23.627Z,9.70
2022-10-11T20:58:52.453Z,9.80
2022-10-11T21:01:21.536Z,9.63
2022-10-11T21:03:48.329Z,9.50
2022-10-11T21:06:14.947Z,6.30
2022-10-11T21:08:41.687Z,7.63
2022-10-11T21:11:08.764Z,8.67
2022-10-11T21:13:35.570Z,10.07
2022-10-11T21:16:12.921Z,7.30
2022-10-11T21:18:39.768Z,8.27
2022-10-11T21:21:11.442Z,8.43
2022-10-11T21:23:38.500Z,9.67
2022-10-11T21:26:07.589Z,8.33
2022-10-11T21:28:34.700Z,10.27
2022-10-11T21:31:09.256Z,8.23
2022-10-11T21:33:36.622Z,7.10
2022-10-11T21:36:05.335Z,8.70
2022-10-11T21:38:32.460Z,7.07
2022-10-11T21:40:59.081Z,7.27
2022-10-11T21:43:25.686Z,5.83
2022-10-11T21:45:52.283Z,7.90
2022-10-11T21:48:18.891Z,6.30
2022-10-11T21:50:52.554Z,9.00
2022-10-11T21:53:19.232Z,9.37
2022-10-11T21:55:45.833Z,11.37
2022-10-11T21:58:12.535Z,9.10
2022-10-11T22:00:39.403Z,6.40
2022-10-11T22:03:05.982Z,6.27
2022-10-11T22:05:32.790Z,6.77
2022-10-11T22:07:59.437Z,7.83
2022-10-11T22:10:26.106Z,7.97
2022-10-11T22:12:52.880Z,12.47
2022-10-11T22:15:19.425Z,8.53
2022-10-11T22:17:46.372Z,5.97
2022-10-11T22:20:12.942Z,6.67
2022-10-11T22:22:39.539Z,8.37
2022-10-11T22:25:06.617Z,8.03
2022-10-11T22:27:33.240Z,10.53
2022-10-11T22:29:59.859Z,6.23
2022-10-11T22:32:26.587Z,9.87
2022-10-11T22:34:53.194Z,7.40
2022-10-11T22:37:19.793Z,7.63
2022-10-11T22:39:46.517Z,9.67
2022-10-11T22:42:13.155Z,8.97
2022-10-11T22:44:39.876Z,8.07
2022-10-11T22:47:06.504Z,9.20
2022-10-11T22:49:39.161Z,8.77
2022-10-11T22:52:05.763Z,8.73
2022-10-11T22:54:34.015Z,11.67
2022-10-11T22:57:00.736Z,10.97
2022-10-11T22:59:27.357Z,6.40
2022-10-11T23:01:53.964Z,11.30
2022-10-11T23:04:21.015Z,11.33
2022-10-11T23:06:47.581Z,7.77
2022-10-11T23:09:14.237Z,8.50
2022-10-11T23:11:40.840Z,11.00
2022-10-11T23:14:08.012Z,7.93
2022-10-11T23:16:34.638Z,9.50
2022-10-11T23:19:01.268Z,9.00
2022-10-11T23:21:27.876Z,9.03
2022-10-11T23:23:55.353Z,8.13
2022-10-11T23:26:21.979Z,8.23
2022-10-11T23:28:48.715Z,9.00
2022-10-11T23:31:17.596Z,7.83
2022-10-11T23:33:45.174Z,10.00
2022-10-11T23:36:15.890Z,8.10
2022-10-11T23:38:42.817Z,7.70
2022-10-11T23:41:09.415Z,8.40
2022-10-11T23:43:36.032Z,7.77
2022-10-11T23:46:02.711Z,8.27
2022-10-11T23:48:29.366Z,8.10
2022-10-11T23:50:55.929Z,9.17
2022-10-11T23:53:22.540Z,7.93
2022-10-11T23:55:49.172Z,6.83
2022-10-11T23:58:15.806Z,9.40
